sensor_id;sensor_type;location;lat;lon;timestamp;temperature;humidity
52267;DHT22;38223;50.940;4.034;2022-11-15T00:01:30;12.10;99.90
52267;DHT22;38223;50.940;4.034;2022-11-15T00:03:59;12.00;99.90
52267;DHT22;38223;50.940;4.034;2022-11-15T00:06:30;12.20;99.90
52267;DHT22;38223;50.940;4.034;2022-11-15T00:09:04;12.10;99.90
52267;DHT22;38223;50.940;4.034;2022-11-15T00:11:34;12.20;99.90
52267;DHT22;38223;50.940;4.034;2022-11-15T00:14:06;12.30;99.90
52267;DHT22;38223;50.940;4.034;2022-11-15T00:16:33;12.30;99.90
52267;DHT22;38223;50.940;4.034;2022-11-15T00:19:01;12.30;99.90
52267;DHT22;38223;50.940;4.034;2022-11-15T00:21:30;12.30;99.90
52267;DHT22;38223;50.940;4.034;2022-11-15T00:24:02;12.30;99.90
52267;DHT22;38223;50.940;4.034;2022-11-15T00:26:30;12.40;99.90
52267;DHT22;38223;50.940;4.034;2022-11-15T00:29:05;12.50;99.90
52267;DHT22;38223;50.940;4.034;2022-11-15T00:31:37;12.60;99.90
52267;DHT22;38223;50.940;4.034;2022-11-15T00:34:12;12.60;99.90
52267;DHT22;38223;50.940;4.034;2022-11-15T00:36:44;12.50;99.90
52267;DHT22;38223;50.940;4.034;2022-11-15T00:39:14;12.60;99.90
52267;DHT22;38223;50.940;4.034;2022-11-15T00:41:41;12.50;99.90
52267;DHT22;38223;50.940;4.034;2022-11-15T00:44:11;12.50;99.90
52267;DHT22;38223;50.940;4.034;2022-11-15T00:46:38;12.50;99.90
52267;DHT22;38223;50.940;4.034;2022-11-15T00:49:16;12.80;99.90
52267;DHT22;38223;50.940;4.034;2022-11-15T00:51:45;12.90;99.90
52267;DHT22;38223;50.940;4.034;2022-11-15T00:54:20;12.80;99.90
52267;DHT22;38223;50.940;4.034;2022-11-15T00:56:49;12.80;99.90
52267;DHT22;38223;50.940;4.034;2022-11-15T00:59:22;12.80;99.90
52267;DHT22;38223;50.940;4.034;2022-11-15T01:01:56;12.80;99.90
52267;DHT22;38223;50.940;4.034;2022-11-15T01:04:27;12.80;99.90
52267;DHT22;38223;50.940;4.034;2022-11-15T01:06:55;12.60;99.90
52267;DHT22;38223;50.940;4.034;2022-11-15T01:09:24;12.70;99.90
52267;DHT22;38223;50.940;4.034;2022-11-15T01:11:55;12.70;99.90
52267;DHT22;38223;50.940;4.034;2022-11-15T01:14:29;12.70;99.90
52267;DHT22;38223;50.940;4.034;2022-11-15T01:17:02;12.70;99.90
52267;DHT22;38223;50.940;4.034;2022-11-15T01:19:36;12.80;99.90
52267;DHT22;38223;50.940;4.034;2022-11-15T01:22:08;12.70;99.90
52267;DHT22;38223;50.940;4.034;2022-11-15T01:24:40;12.70;99.90
52267;DHT22;38223;50.940;4.034;2022-11-15T01:27:11;12.80;99.90
52267;DHT22;38223;50.940;4.034;2022-11-15T01:29:46;12.80;99.90
52267;DHT22;38223;50.940;4.034;2022-11-15T01:32:15;12.80;99.90
52267;DHT22;38223;50.940;4.034;2022-11-15T01:34:50;12.90;99.90
52267;DHT22;38223;50.940;4.034;2022-11-15T01:37:18;12.90;99.90
52267;DHT22;38223;50.940;4.034;2022-11-15T01:39:47;12.90;99.90
52267;DHT22;38223;50.940;4.034;2022-11-15T01:42:23;13.00;99.90
52267;DHT22;38223;50.940;4.034;2022-11-15T01:44:54;13.00;99.90
52267;DHT22;38223;50.940;4.034;2022-11-15T01:47:31;13.00;99.90
52267;DHT22;38223;50.940;4.034;2022-11-15T01:50:10;12.80;99.90
52267;DHT22;38223;50.940;4.034;2022-11-15T01:52:42;12.80;99.90
52267;DHT22;38223;50.940;4.034;2022-11-15T01:55:22;12.80;99.90
52267;DHT22;38223;50.940;4.034;2022-11-15T01:57:59;12.80;99.90
52267;DHT22;38223;50.940;4.034;2022-11-15T02:00:31;12.70;99.90
52267;DHT22;38223;50.940;4.034;2022-11-15T02:03:01;12.80;99.90
52267;DHT22;38223;50.940;4.034;2022-11-15T02:05:35;12.80;99.90
52267;DHT22;38223;50.940;4.034;2022-11-15T02:08:11;12.60;99.90
52267;DHT22;38223;50.940;4.034;2022-11-15T02:10:41;12.60;99.90
52267;DHT22;38223;50.940;4.034;2022-11-15T02:13:16;12.60;99.90
52267;DHT22;38223;50.940;4.034;2022-11-15T02:16:11;12.60;99.90
52267;DHT22;38223;50.940;4.034;2022-11-15T02:18:49;12.60;99.90
52267;DHT22;38223;50.940;4.034;2022-11-15T02:21:28;12.60;99.90
52267;DHT22;38223;50.940;4.034;2022-11-15T02:27:27;12.50;99.90
52267;DHT22;38223;50.940;4.034;2022-11-15T02:30:16;12.50;99.90
52267;DHT22;38223;50.940;4.034;2022-11-15T02:38:06;12.70;99.90
52267;DHT22;38223;50.940;4.034;2022-11-15T02:44:26;12.70;99.90
52267;DHT22;38223;50.940;4.034;2022-11-15T02:46:38;12.60;99.90
52267;DHT22;38223;50.940;4.034;2022-11-15T02:49:27;12.30;99.90
52267;DHT22;38223;50.940;4.034;2022-11-15T02:52:03;12.50;99.90
52267;DHT22;38223;50.940;4.034;2022-11-15T02:54:36;12.50;99.90
52267;DHT22;38223;50.940;4.034;2022-11-15T02:57:16;12.50;99.90
52267;DHT22;38223;50.940;4.034;2022-11-15T03:00:06;12.60;99.90
52267;DHT22;38223;50.940;4.034;2022-11-15T03:05:51;12.80;99.90
52267;DHT22;38223;50.940;4.034;2022-11-15T03:08:28;12.60;99.90
52267;DHT22;38223;50.940;4.034;2022-11-15T03:11:15;12.60;99.90
52267;DHT22;38223;50.940;4.034;2022-11-15T03:22:10;12.40;99.90
52267;DHT22;38223;50.940;4.034;2022-11-15T03:24:45;12.40;99.90
52267;DHT22;38223;50.940;4.034;2022-11-15T03:27:17;12.40;99.90
52267;DHT22;38223;50.940;4.034;2022-11-15T03:29:51;12.40;99.90
52267;DHT22;38223;50.940;4.034;2022-11-15T03:32:24;12.50;99.90
52267;DHT22;38223;50.940;4.034;2022-11-15T03:35:01;12.50;99.90
52267;DHT22;38223;50.940;4.034;2022-11-15T03:40:22;12.50;99.90
52267;DHT22;38223;50.940;4.034;2022-11-15T03:43:02;12.50;99.90
52267;DHT22;38223;50.940;4.034;2022-11-15T03:45:47;12.50;99.90
52267;DHT22;38223;50.940;4.034;2022-11-15T03:48:19;12.60;99.90
52267;DHT22;38223;50.940;4.034;2022-11-15T03:50:49;12.40;99.90
52267;DHT22;38223;50.940;4.034;2022-11-15T03:53:21;12.40;99.90
52267;DHT22;38223;50.940;4.034;2022-11-15T03:55:55;12.40;99.90
52267;DHT22;38223;50.940;4.034;2022-11-15T03:58:28;12.40;99.90
52267;DHT22;38223;50.940;4.034;2022-11-15T04:00:56;12.40;99.90
52267;DHT22;38223;50.940;4.034;2022-11-15T04:03:27;12.40;99.90
52267;DHT22;38223;50.940;4.034;2022-11-15T04:06:01;12.40;99.90
52267;DHT22;38223;50.940;4.034;2022-11-15T04:08:29;12.40;99.90
52267;DHT22;38223;50.940;4.034;2022-11-15T04:10:56;12.30;99.90
52267;DHT22;38223;50.940;4.034;2022-11-15T04:13:24;12.20;99.90
52267;DHT22;38223;50.940;4.034;2022-11-15T04:15:55;12.30;99.90
52267;DHT22;38223;50.940;4.034;2022-11-15T04:18:28;12.20;99.90
52267;DHT22;38223;50.940;4.034;2022-11-15T04:20:59;12.30;99.90
52267;DHT22;38223;50.940;4.034;2022-11-15T04:23:47;12.30;99.90
52267;DHT22;38223;50.940;4.034;2022-11-15T04:26:23;12.30;99.90
52267;DHT22;38223;50.940;4.034;2022-11-15T04:28:58;12.30;99.90
52267;DHT22;38223;50.940;4.034;2022-11-15T04:31:43;12.30;99.90
52267;DHT22;38223;50.940;4.034;2022-11-15T04:34:12;12.20;99.90
52267;DHT22;38223;50.940;4.034;2022-11-15T04:36:43;12.20;99.90
52267;DHT22;38223;50.940;4.034;2022-11-15T04:39:32;12.20;99.90
52267;DHT22;38223;50.940;4.034;2022-11-15T04:42:02;12.00;99.90
52267;DHT22;38223;50.940;4.034;2022-11-15T04:44:38;12.00;99.90
52267;DHT22;38223;50.940;4.034;2022-11-15T04:47:07;12.00;99.90
52267;DHT22;38223;50.940;4.034;2022-11-15T04:49:38;12.10;99.90
52267;DHT22;38223;50.940;4.034;2022-11-15T04:52:08;12.10;99.90
52267;DHT22;38223;50.940;4.034;2022-11-15T04:54:43;12.10;99.90
52267;DHT22;38223;50.940;4.034;2022-11-15T05:00:09;12.10;99.90
52267;DHT22;38223;50.940;4.034;2022-11-15T05:02:47;12.00;99.90
52267;DHT22;38223;50.940;4.034;2022-11-15T05:05:34;12.10;99.90
52267;DHT22;38223;50.940;4.034;2022-11-15T05:08:09;12.10;99.90
52267;DHT22;38223;50.940;4.034;2022-11-15T05:10:38;12.00;99.90
52267;DHT22;38223;50.940;4.034;2022-11-15T05:13:08;11.90;99.90
52267;DHT22;38223;50.940;4.034;2022-11-15T05:15:44;11.90;99.90
52267;DHT22;38223;50.940;4.034;2022-11-15T05:18:11;11.90;99.90
52267;DHT22;38223;50.940;4.034;2022-11-15T05:20:47;11.80;99.90
52267;DHT22;38223;50.940;4.034;2022-11-15T05:23:22;11.80;99.90
52267;DHT22;38223;50.940;4.034;2022-11-15T05:25:53;11.70;99.90
52267;DHT22;38223;50.940;4.034;2022-11-15T05:28:26;11.70;99.90
52267;DHT22;38223;50.940;4.034;2022-11-15T05:31:13;11.70;99.90
52267;DHT22;38223;50.940;4.034;2022-11-15T05:33:45;11.70;99.90
52267;DHT22;38223;50.940;4.034;2022-11-15T05:38:49;11.60;99.90
52267;DHT22;38223;50.940;4.034;2022-11-15T05:41:24;11.60;99.90
52267;DHT22;38223;50.940;4.034;2022-11-15T05:43:54;11.50;99.90
52267;DHT22;38223;50.940;4.034;2022-11-15T05:46:31;11.50;99.90
52267;DHT22;38223;50.940;4.034;2022-11-15T05:49:02;11.60;99.90
52267;DHT22;38223;50.940;4.034;2022-11-15T05:51:39;11.70;99.90
52267;DHT22;38223;50.940;4.034;2022-11-15T05:54:14;11.70;99.90
52267;DHT22;38223;50.940;4.034;2022-11-15T05:56:48;11.60;99.90
52267;DHT22;38223;50.940;4.034;2022-11-15T05:59:24;11.70;99.90
52267;DHT22;38223;50.940;4.034;2022-11-15T06:01:54;11.60;99.90
52267;DHT22;38223;50.940;4.034;2022-11-15T06:04:29;11.70;99.90
52267;DHT22;38223;50.940;4.034;2022-11-15T06:07:05;11.60;99.90
52267;DHT22;38223;50.940;4.034;2022-11-15T06:09:35;11.50;99.90
52267;DHT22;38223;50.940;4.034;2022-11-15T06:12:08;11.50;99.90
52267;DHT22;38223;50.940;4.034;2022-11-15T06:14:43;11.50;99.90
52267;DHT22;38223;50.940;4.034;2022-11-15T06:17:18;11.60;99.90
52267;DHT22;38223;50.940;4.034;2022-11-15T06:19:47;11.60;99.90
52267;DHT22;38223;50.940;4.034;2022-11-15T06:22:24;11.50;99.90
52267;DHT22;38223;50.940;4.034;2022-11-15T06:24:54;11.60;99.90
52267;DHT22;38223;50.940;4.034;2022-11-15T06:27:30;11.50;99.90
52267;DHT22;38223;50.940;4.034;2022-11-15T06:30:03;11.50;99.90
52267;DHT22;38223;50.940;4.034;2022-11-15T06:32:38;11.50;99.90
52267;DHT22;38223;50.940;4.034;2022-11-15T06:35:08;11.40;99.90
52267;DHT22;38223;50.940;4.034;2022-11-15T06:37:42;11.40;99.90
52267;DHT22;38223;50.940;4.034;2022-11-15T06:40:19;11.40;99.90
52267;DHT22;38223;50.940;4.034;2022-11-15T06:42:52;11.50;99.90
52267;DHT22;38223;50.940;4.034;2022-11-15T06:45:22;11.50;99.90
52267;DHT22;38223;50.940;4.034;2022-11-15T06:47:56;11.40;99.90
52267;DHT22;38223;50.940;4.034;2022-11-15T06:50:26;11.50;99.90
52267;DHT22;38223;50.940;4.034;2022-11-15T06:53:03;11.40;99.90
52267;DHT22;38223;50.940;4.034;2022-11-15T06:55:37;11.40;99.90
52267;DHT22;38223;50.940;4.034;2022-11-15T06:58:08;11.30;99.90
52267;DHT22;38223;50.940;4.034;2022-11-15T07:00:43;11.30;99.90
52267;DHT22;38223;50.940;4.034;2022-11-15T07:03:14;11.20;99.90
52267;DHT22;38223;50.940;4.034;2022-11-15T07:05:55;11.20;99.90
52267;DHT22;38223;50.940;4.034;2022-11-15T07:08:26;11.20;99.90
52267;DHT22;38223;50.940;4.034;2022-11-15T07:11:01;11.30;99.90
52267;DHT22;38223;50.940;4.034;2022-11-15T07:13:35;11.30;99.90
52267;DHT22;38223;50.940;4.034;2022-11-15T07:16:08;11.40;99.90
52267;DHT22;38223;50.940;4.034;2022-11-15T07:18:47;11.30;99.90
52267;DHT22;38223;50.940;4.034;2022-11-15T07:21:17;11.20;99.90
52267;DHT22;38223;50.940;4.034;2022-11-15T07:23:50;11.00;99.90
52267;DHT22;38223;50.940;4.034;2022-11-15T07:26:21;10.90;99.90
52267;DHT22;38223;50.940;4.034;2022-11-15T07:28:56;10.90;99.90
52267;DHT22;38223;50.940;4.034;2022-11-15T07:31:31;10.90;99.90
52267;DHT22;38223;50.940;4.034;2022-11-15T07:34:05;11.00;99.90
52267;DHT22;38223;50.940;4.034;2022-11-15T07:36:39;10.90;99.90
52267;DHT22;38223;50.940;4.034;2022-11-15T07:39:11;10.90;99.90
52267;DHT22;38223;50.940;4.034;2022-11-15T07:41:45;10.90;99.90
52267;DHT22;38223;50.940;4.034;2022-11-15T07:44:16;10.70;99.90
52267;DHT22;38223;50.940;4.034;2022-11-15T07:46:59;10.70;99.90
52267;DHT22;38223;50.940;4.034;2022-11-15T07:49:31;10.70;99.90
52267;DHT22;38223;50.940;4.034;2022-11-15T07:52:01;10.60;99.90
52267;DHT22;38223;50.940;4.034;2022-11-15T07:54:28;10.60;99.90
52267;DHT22;38223;50.940;4.034;2022-11-15T07:57:33;10.60;99.90
52267;DHT22;38223;50.940;4.034;2022-11-15T08:00:07;10.60;99.90
52267;DHT22;38223;50.940;4.034;2022-11-15T08:02:39;10.60;99.90
52267;DHT22;38223;50.940;4.034;2022-11-15T08:05:11;10.70;99.90
52267;DHT22;38223;50.940;4.034;2022-11-15T08:07:40;10.60;99.90
52267;DHT22;38223;50.940;4.034;2022-11-15T08:10:12;10.60;99.90
52267;DHT22;38223;50.940;4.034;2022-11-15T08:12:47;10.70;99.90
52267;DHT22;38223;50.940;4.034;2022-11-15T08:15:19;10.60;99.90
52267;DHT22;38223;50.940;4.034;2022-11-15T08:20:49;10.80;99.90
52267;DHT22;38223;50.940;4.034;2022-11-15T08:23:19;10.70;99.90
52267;DHT22;38223;50.940;4.034;2022-11-15T08:25:48;10.70;99.90
52267;DHT22;38223;50.940;4.034;2022-11-15T08:28:18;10.80;99.90
52267;DHT22;38223;50.940;4.034;2022-11-15T08:30:49;10.80;99.90
52267;DHT22;38223;50.940;4.034;2022-11-15T08:33:25;10.80;99.90
52267;DHT22;38223;50.940;4.034;2022-11-15T08:35:59;10.80;99.90
52267;DHT22;38223;50.940;4.034;2022-11-15T08:38:30;10.80;99.90
52267;DHT22;38223;50.940;4.034;2022-11-15T08:41:04;10.80;99.90
52267;DHT22;38223;50.940;4.034;2022-11-15T08:43:34;10.90;99.90
52267;DHT22;38223;50.940;4.034;2022-11-15T08:46:07;10.90;99.90
52267;DHT22;38223;50.940;4.034;2022-11-15T08:48:39;11.00;99.90
52267;DHT22;38223;50.940;4.034;2022-11-15T08:51:08;11.00;99.90
52267;DHT22;38223;50.940;4.034;2022-11-15T08:53:37;11.10;99.90
52267;DHT22;38223;50.940;4.034;2022-11-15T08:56:08;11.20;99.90
52267;DHT22;38223;50.940;4.034;2022-11-15T08:58:44;11.30;99.90
52267;DHT22;38223;50.940;4.034;2022-11-15T09:01:18;11.20;99.90
52267;DHT22;38223;50.940;4.034;2022-11-15T09:03:50;11.30;99.90
52267;DHT22;38223;50.940;4.034;2022-11-15T09:06:18;11.40;99.90
52267;DHT22;38223;50.940;4.034;2022-11-15T09:08:47;11.50;99.90
52267;DHT22;38223;50.940;4.034;2022-11-15T09:11:19;11.50;99.90
52267;DHT22;38223;50.940;4.034;2022-11-15T09:13:52;11.60;99.90
52267;DHT22;38223;50.940;4.034;2022-11-15T09:16:23;11.50;99.90
52267;DHT22;38223;50.940;4.034;2022-11-15T09:18:55;11.70;99.90
52267;DHT22;38223;50.940;4.034;2022-11-15T09:21:25;11.90;99.90
52267;DHT22;38223;50.940;4.034;2022-11-15T09:23:58;11.70;99.90
52267;DHT22;38223;50.940;4.034;2022-11-15T09:26:30;11.70;99.90
52267;DHT22;38223;50.940;4.034;2022-11-15T09:29:01;11.70;99.90
52267;DHT22;38223;50.940;4.034;2022-11-15T09:31:29;11.80;99.90
52267;DHT22;38223;50.940;4.034;2022-11-15T09:34:04;11.80;99.90
52267;DHT22;38223;50.940;4.034;2022-11-15T09:36:38;11.90;99.90
52267;DHT22;38223;50.940;4.034;2022-11-15T09:39:14;11.80;99.90
52267;DHT22;38223;50.940;4.034;2022-11-15T09:45:04;11.90;99.90
52267;DHT22;38223;50.940;4.034;2022-11-15T09:50:40;11.90;99.90
52267;DHT22;38223;50.940;4.034;2022-11-15T09:52:57;12.00;99.90
52267;DHT22;38223;50.940;4.034;2022-11-15T09:55:34;11.90;99.90
52267;DHT22;38223;50.940;4.034;2022-11-15T09:58:15;11.90;99.90
52267;DHT22;38223;50.940;4.034;2022-11-15T10:00:47;12.00;99.90
52267;DHT22;38223;50.940;4.034;2022-11-15T10:03:35;12.10;99.90
52267;DHT22;38223;50.940;4.034;2022-11-15T10:06:10;12.00;99.90
52267;DHT22;38223;50.940;4.034;2022-11-15T10:08:50;12.00;99.90
52267;DHT22;38223;50.940;4.034;2022-11-15T10:11:22;12.00;99.90
52267;DHT22;38223;50.940;4.034;2022-11-15T10:13:55;12.00;99.90
52267;DHT22;38223;50.940;4.034;2022-11-15T10:25:10;12.30;99.90
52267;DHT22;38223;50.940;4.034;2022-11-15T10:27:40;12.40;99.90
52267;DHT22;38223;50.940;4.034;2022-11-15T10:30:16;12.40;99.90
52267;DHT22;38223;50.940;4.034;2022-11-15T10:32:52;12.60;99.90
52267;DHT22;38223;50.940;4.034;2022-11-15T10:35:30;12.70;99.90
52267;DHT22;38223;50.940;4.034;2022-11-15T10:38:11;12.70;99.90
52267;DHT22;38223;50.940;4.034;2022-11-15T10:40:44;12.80;99.90
52267;DHT22;38223;50.940;4.034;2022-11-15T10:43:20;12.80;99.90
52267;DHT22;38223;50.940;4.034;2022-11-15T10:45:48;12.80;99.90
52267;DHT22;38223;50.940;4.034;2022-11-15T10:48:23;12.80;99.90
52267;DHT22;38223;50.940;4.034;2022-11-15T10:50:57;12.80;99.90
52267;DHT22;38223;50.940;4.034;2022-11-15T10:53:31;12.90;99.90
52267;DHT22;38223;50.940;4.034;2022-11-15T10:56:06;12.90;99.90
52267;DHT22;38223;50.940;4.034;2022-11-15T10:58:49;12.80;99.90
52267;DHT22;38223;50.940;4.034;2022-11-15T11:01:27;12.90;99.90
52267;DHT22;38223;50.940;4.034;2022-11-15T11:04:07;13.00;99.90
52267;DHT22;38223;50.940;4.034;2022-11-15T11:06:59;13.10;99.90
52267;DHT22;38223;50.940;4.034;2022-11-15T11:09:37;13.10;99.90
52267;DHT22;38223;50.940;4.034;2022-11-15T11:12:13;13.10;99.90
52267;DHT22;38223;50.940;4.034;2022-11-15T11:14:45;13.20;99.90
52267;DHT22;38223;50.940;4.034;2022-11-15T11:17:48;13.30;99.90
52267;DHT22;38223;50.940;4.034;2022-11-15T11:20:36;13.30;99.90
52267;DHT22;38223;50.940;4.034;2022-11-15T11:31:32;13.20;99.90
52267;DHT22;38223;50.940;4.034;2022-11-15T11:34:15;13.20;99.90
52267;DHT22;38223;50.940;4.034;2022-11-15T11:37:03;13.30;99.90
52267;DHT22;38223;50.940;4.034;2022-11-15T11:45:58;13.60;99.90
52267;DHT22;38223;50.940;4.034;2022-11-15T11:48:49;13.50;99.90
52267;DHT22;38223;50.940;4.034;2022-11-15T11:51:28;13.60;99.90
52267;DHT22;38223;50.940;4.034;2022-11-15T11:54:09;13.70;99.90
52267;DHT22;38223;50.940;4.034;2022-11-15T11:56:39;13.70;99.90
52267;DHT22;38223;50.940;4.034;2022-11-15T11:59:41;13.70;99.90
52267;DHT22;38223;50.940;4.034;2022-11-15T12:02:31;13.70;99.90
52267;DHT22;38223;50.940;4.034;2022-11-15T12:05:14;13.70;99.90
52267;DHT22;38223;50.940;4.034;2022-11-15T12:07:36;13.70;99.90
52267;DHT22;38223;50.940;4.034;2022-11-15T12:10:21;13.80;99.90
52267;DHT22;38223;50.940;4.034;2022-11-15T12:13:04;13.70;99.90
52267;DHT22;38223;50.940;4.034;2022-11-15T12:15:49;13.70;99.90
52267;DHT22;38223;50.940;4.034;2022-11-15T12:18:18;13.60;99.90
52267;DHT22;38223;50.940;4.034;2022-11-15T12:20:53;13.70;99.90
52267;DHT22;38223;50.940;4.034;2022-11-15T12:23:37;13.70;99.90
52267;DHT22;38223;50.940;4.034;2022-11-15T12:28:58;13.90;99.90
52267;DHT22;38223;50.940;4.034;2022-11-15T12:31:53;13.80;99.90
52267;DHT22;38223;50.940;4.034;2022-11-15T12:34:35;13.70;99.90
52267;DHT22;38223;50.940;4.034;2022-11-15T12:37:02;13.70;99.90
52267;DHT22;38223;50.940;4.034;2022-11-15T12:45:32;13.80;99.90
52267;DHT22;38223;50.940;4.034;2022-11-15T12:50:56;13.80;99.90
52267;DHT22;38223;50.940;4.034;2022-11-15T12:53:27;13.70;99.90
52267;DHT22;38223;50.940;4.034;2022-11-15T12:58:48;13.90;99.90
52267;DHT22;38223;50.940;4.034;2022-11-15T13:06:58;14.00;99.90
52267;DHT22;38223;50.940;4.034;2022-11-15T13:17:48;13.80;99.90
52267;DHT22;38223;50.940;4.034;2022-11-15T13:20:27;13.90;99.90
52267;DHT22;38223;50.940;4.034;2022-11-15T13:23:09;13.90;99.90
52267;DHT22;38223;50.940;4.034;2022-11-15T13:28:43;14.10;99.90
52267;DHT22;38223;50.940;4.034;2022-11-15T13:31:42;14.10;99.90
52267;DHT22;38223;50.940;4.034;2022-11-15T13:34:26;14.10;99.90
52267;DHT22;38223;50.940;4.034;2022-11-15T13:37:03;14.00;99.90
52267;DHT22;38223;50.940;4.034;2022-11-15T13:39:36;14.00;99.90
52267;DHT22;38223;50.940;4.034;2022-11-15T13:42:13;14.00;99.90
52267;DHT22;38223;50.940;4.034;2022-11-15T13:44:38;13.90;99.90
52267;DHT22;38223;50.940;4.034;2022-11-15T13:47:19;14.00;99.90
52267;DHT22;38223;50.940;4.034;2022-11-15T13:49:48;14.00;99.90
52267;DHT22;38223;50.940;4.034;2022-11-15T13:52:16;14.00;99.90
52267;DHT22;38223;50.940;4.034;2022-11-15T13:54:56;14.10;99.90
52267;DHT22;38223;50.940;4.034;2022-11-15T14:00:40;14.10;99.90
52267;DHT22;38223;50.940;4.034;2022-11-15T14:03:20;14.10;99.90
52267;DHT22;38223;50.940;4.034;2022-11-15T14:06:11;14.10;99.90
52267;DHT22;38223;50.940;4.034;2022-11-15T14:08:38;14.00;99.90
52267;DHT22;38223;50.940;4.034;2022-11-15T14:11:20;14.10;99.90
52267;DHT22;38223;50.940;4.034;2022-11-15T14:14:14;14.10;99.90
52267;DHT22;38223;50.940;4.034;2022-11-15T14:16:48;14.20;99.90
52267;DHT22;38223;50.940;4.034;2022-11-15T14:22:18;14.10;99.90
52267;DHT22;38223;50.940;4.034;2022-11-15T14:25:19;14.10;99.90
52267;DHT22;38223;50.940;4.034;2022-11-15T14:31:00;14.00;99.90
52267;DHT22;38223;50.940;4.034;2022-11-15T14:33:37;14.00;99.90
52267;DHT22;38223;50.940;4.034;2022-11-15T14:36:20;14.00;99.90
52267;DHT22;38223;50.940;4.034;2022-11-15T14:38:50;14.00;99.90
52267;DHT22;38223;50.940;4.034;2022-11-15T14:41:23;14.00;99.90
52267;DHT22;38223;50.940;4.034;2022-11-15T14:43:55;14.00;99.90
52267;DHT22;38223;50.940;4.034;2022-11-15T14:46:23;13.90;99.90
52267;DHT22;38223;50.940;4.034;2022-11-15T14:48:53;13.70;99.90
52267;DHT22;38223;50.940;4.034;2022-11-15T14:51:23;13.60;99.90
52267;DHT22;38223;50.940;4.034;2022-11-15T14:53:56;13.50;99.90
52267;DHT22;38223;50.940;4.034;2022-11-15T14:56:26;13.40;99.90
52267;DHT22;38223;50.940;4.034;2022-11-15T14:58:54;13.40;99.90
52267;DHT22;38223;50.940;4.034;2022-11-15T15:01:29;13.30;99.90
52267;DHT22;38223;50.940;4.034;2022-11-15T15:03:58;13.40;99.90
52267;DHT22;38223;50.940;4.034;2022-11-15T15:06:27;13.40;99.90
52267;DHT22;38223;50.940;4.034;2022-11-15T15:08:56;13.40;99.90
52267;DHT22;38223;50.940;4.034;2022-11-15T15:11:32;13.40;99.90
52267;DHT22;38223;50.940;4.034;2022-11-15T15:14:02;13.20;99.90
52267;DHT22;38223;50.940;4.034;2022-11-15T15:16:30;13.20;99.90
52267;DHT22;38223;50.940;4.034;2022-11-15T15:19:00;13.10;99.90
52267;DHT22;38223;50.940;4.034;2022-11-15T15:21:29;13.00;99.90
52267;DHT22;38223;50.940;4.034;2022-11-15T15:23:58;13.00;99.90
52267;DHT22;38223;50.940;4.034;2022-11-15T15:26:26;13.00;99.90
52267;DHT22;38223;50.940;4.034;2022-11-15T15:28:58;13.10;99.90
52267;DHT22;38223;50.940;4.034;2022-11-15T15:31:29;13.00;99.90
52267;DHT22;38223;50.940;4.034;2022-11-15T15:34:00;13.00;99.90
52267;DHT22;38223;50.940;4.034;2022-11-15T15:36:32;12.90;99.90
52267;DHT22;38223;50.940;4.034;2022-11-15T15:39:07;12.90;99.90
52267;DHT22;38223;50.940;4.034;2022-11-15T15:41:47;12.80;99.90
52267;DHT22;38223;50.940;4.034;2022-11-15T15:44:18;12.90;99.90
52267;DHT22;38223;50.940;4.034;2022-11-15T15:46:50;12.80;99.90
52267;DHT22;38223;50.940;4.034;2022-11-15T15:49:25;12.70;99.90
52267;DHT22;38223;50.940;4.034;2022-11-15T15:51:56;12.70;99.90
52267;DHT22;38223;50.940;4.034;2022-11-15T15:54:27;12.80;99.90
52267;DHT22;38223;50.940;4.034;2022-11-15T15:56:54;12.70;99.90
52267;DHT22;38223;50.940;4.034;2022-11-15T15:59:26;12.80;99.90
52267;DHT22;38223;50.940;4.034;2022-11-15T16:01:58;12.80;99.90
52267;DHT22;38223;50.940;4.034;2022-11-15T16:04:29;12.80;99.90
52267;DHT22;38223;50.940;4.034;2022-11-15T16:07:03;12.80;99.90
52267;DHT22;38223;50.940;4.034;2022-11-15T16:09:31;12.80;99.90
52267;DHT22;38223;50.940;4.034;2022-11-15T16:12:17;12.80;99.90
52267;DHT22;38223;50.940;4.034;2022-11-15T16:14:46;12.80;99.90
52267;DHT22;38223;50.940;4.034;2022-11-15T16:17:18;12.80;99.90
52267;DHT22;38223;50.940;4.034;2022-11-15T16:19:50;12.80;99.90
52267;DHT22;38223;50.940;4.034;2022-11-15T16:22:22;12.90;99.90
52267;DHT22;38223;50.940;4.034;2022-11-15T16:24:53;12.90;99.90
52267;DHT22;38223;50.940;4.034;2022-11-15T16:27:26;12.90;99.90
52267;DHT22;38223;50.940;4.034;2022-11-15T16:29:56;12.90;99.90
52267;DHT22;38223;50.940;4.034;2022-11-15T16:32:28;12.90;99.90
52267;DHT22;38223;50.940;4.034;2022-11-15T16:35:03;12.90;99.90
52267;DHT22;38223;50.940;4.034;2022-11-15T16:37:35;12.90;99.90
52267;DHT22;38223;50.940;4.034;2022-11-15T16:40:07;13.00;99.90
52267;DHT22;38223;50.940;4.034;2022-11-15T16:42:37;13.00;99.90
52267;DHT22;38223;50.940;4.034;2022-11-15T16:45:11;13.00;99.90
52267;DHT22;38223;50.940;4.034;2022-11-15T16:47:45;13.00;99.90
52267;DHT22;38223;50.940;4.034;2022-11-15T16:50:25;13.00;99.90
52267;DHT22;38223;50.940;4.034;2022-11-15T16:52:59;13.10;99.90
52267;DHT22;38223;50.940;4.034;2022-11-15T16:55:30;13.20;99.90
52267;DHT22;38223;50.940;4.034;2022-11-15T16:57:59;13.10;99.90
52267;DHT22;38223;50.940;4.034;2022-11-15T17:00:31;13.10;99.90
52267;DHT22;38223;50.940;4.034;2022-11-15T17:03:03;13.10;99.90
52267;DHT22;38223;50.940;4.034;2022-11-15T17:05:35;13.10;99.90
52267;DHT22;38223;50.940;4.034;2022-11-15T17:08:07;13.10;99.90
52267;DHT22;38223;50.940;4.034;2022-11-15T17:10:42;13.10;99.90
52267;DHT22;38223;50.940;4.034;2022-11-15T17:13:16;13.10;99.90
52267;DHT22;38223;50.940;4.034;2022-11-15T17:15:50;13.10;99.90
52267;DHT22;38223;50.940;4.034;2022-11-15T17:18:21;13.10;99.90
52267;DHT22;38223;50.940;4.034;2022-11-15T17:20:51;13.10;99.90
52267;DHT22;38223;50.940;4.034;2022-11-15T17:23:23;13.10;99.90
52267;DHT22;38223;50.940;4.034;2022-11-15T17:26:01;13.20;99.90
52267;DHT22;38223;50.940;4.034;2022-11-15T17:28:33;13.10;99.90
52267;DHT22;38223;50.940;4.034;2022-11-15T17:31:12;13.10;99.90
52267;DHT22;38223;50.940;4.034;2022-11-15T17:33:45;13.00;99.90
52267;DHT22;38223;50.940;4.034;2022-11-15T17:36:21;13.00;99.90
52267;DHT22;38223;50.940;4.034;2022-11-15T17:38:53;13.00;99.90
52267;DHT22;38223;50.940;4.034;2022-11-15T17:41:22;13.00;99.90
52267;DHT22;38223;50.940;4.034;2022-11-15T17:44:01;12.90;99.90
52267;DHT22;38223;50.940;4.034;2022-11-15T17:46:32;12.90;99.90
52267;DHT22;38223;50.940;4.034;2022-11-15T17:49:02;12.90;99.90
52267;DHT22;38223;50.940;4.034;2022-11-15T17:51:35;13.00;99.90
52267;DHT22;38223;50.940;4.034;2022-11-15T17:54:03;13.00;99.90
52267;DHT22;38223;50.940;4.034;2022-11-15T17:56:31;12.90;99.90
52267;DHT22;38223;50.940;4.034;2022-11-15T17:59:02;12.90;99.90